Time;durP1;ratioP1;P1;durP2;ratioP2;P2;SDS_P1;SDS_P2;PMS_P1;PMS_P2;Temp;Humidity;BMP_temperature;BMP_pressure;BME280_temperature;BME280_humidity;BME280_pressure;Samples;Min_cycle;Max_cycle;Signal;HPM_P1;HPM_P2
2024/02/28 00:00:26;;;;;;;13.83;6.87;;;;;;;7.81;100.00;102007.75;2078418;28;20192;-65
2024/02/28 00:01:28;;;;;;;10.57;6.57;;;;;;;7.82;100.00;102016.81;2080713;28;20940;-65
2024/02/28 00:02:30;;;;;;;10.47;6.37;;;;;;;7.79;100.00;102012.84;2076687;28;20438;-65
2024/02/28 00:03:31;;;;;;;12.33;6.93;;;;;;;7.81;100.00;102016.03;2078660;28;20443;-65
2024/02/28 00:04:32;;;;;;;11.00;6.93;;;;;;;7.78;100.00;102018.72;2077566;28;20518;-65
2024/02/28 00:05:32;;;;;;;10.30;6.20;;;;;;;7.76;100.00;102021.91;2078148;28;20459;-64
2024/02/28 00:06:33;;;;;;;15.77;8.77;;;;;;;7.76;100.00;102021.91;2080901;28;20234;-65
2024/02/28 00:07:34;;;;;;;13.37;7.20;;;;;;;7.73;100.00;102025.41;2078543;28;20200;-65
2024/02/28 00:08:35;;;;;;;11.60;6.77;;;;;;;7.58;100.00;102001.59;2078228;28;20199;-64
2024/02/28 00:09:36;;;;;;;8.83;5.90;;;;;;;7.66;100.00;102008.78;2078310;28;20458;-65
2024/02/28 00:10:37;;;;;;;11.67;6.83;;;;;;;7.63;100.00;102015.03;2078647;28;20441;-64
2024/02/28 00:11:45;;;;;;;11.03;6.40;;;;;;;7.53;100.00;102003.91;2078639;28;20230;-65
2024/02/28 00:12:46;;;;;;;16.40;8.33;;;;;;;7.55;100.00;102013.41;2080322;28;20427;-65
2024/02/28 00:13:46;;;;;;;15.07;9.00;;;;;;;7.51;100.00;102004.28;2079509;28;20442;-65
2024/02/28 00:14:47;;;;;;;13.07;7.03;;;;;;;7.42;100.00;102005.75;2084165;28;20257;-65
2024/02/28 00:15:47;;;;;;;10.33;6.90;;;;;;;7.30;100.00;101990.28;2085915;28;20719;-65
2024/02/28 00:16:48;;;;;;;11.13;6.53;;;;;;;7.38;100.00;102011.22;2078413;28;20215;-66
2024/02/28 00:17:53;;;;;;;12.33;6.87;;;;;;;7.37;100.00;102011.59;2078095;28;20262;-64
2024/02/28 00:18:53;;;;;;;14.20;8.43;;;;;;;7.35;100.00;102002.91;2078539;28;20190;-65
2024/02/28 00:19:54;;;;;;;17.10;8.20;;;;;;;7.34;100.00;102004.09;2080243;28;20445;-65
2024/02/28 00:20:54;;;;;;;15.17;9.60;;;;;;;7.33;100.00;102010.78;2078311;28;20192;-64
2024/02/28 00:21:55;;;;;;;13.87;7.10;;;;;;;7.33;100.00;102008.81;2078420;28;20700;-65
2024/02/28 00:22:56;;;;;;;17.17;8.07;;;;;;;7.34;100.00;102015.91;2078469;28;20544;-65
2024/02/28 00:23:56;;;;;;;15.10;7.80;;;;;;;7.36;100.00;102013.59;2077714;28;20445;-65
2024/02/28 00:24:57;;;;;;;16.20;7.50;;;;;;;7.37;100.00;102012.41;2078841;28;20671;-65
2024/02/28 00:25:57;;;;;;;14.77;6.63;;;;;;;7.40;100.00;102013.63;2080244;28;20187;-65
2024/02/28 00:26:58;;;;;;;15.47;7.30;;;;;;;6.48;100.00;101868.44;2078597;28;20187;-65
2024/02/28 00:27:58;;;;;;;10.27;6.73;;;;;;;7.44;100.00;102015.22;2078222;28;20218;-65
2024/02/28 00:28:59;;;;;;;14.50;7.30;;;;;;;7.46;100.00;102010.16;2077927;28;20766;-64
2024/02/28 00:29:59;;;;;;;10.67;6.40;;;;;;;7.47;100.00;102011.72;2078113;28;20277;-65
2024/02/28 00:31:00;;;;;;;10.50;5.90;;;;;;;7.49;100.00;102003.84;2087416;28;20191;-65
2024/02/28 00:32:00;;;;;;;16.07;6.93;;;;;;;7.53;100.00;102007.44;2086962;28;20235;-65
2024/02/28 00:33:01;;;;;;;14.13;7.37;;;;;;;7.54;100.00;102006.28;2078067;28;20190;-65
2024/02/28 00:34:01;;;;;;;11.80;6.80;;;;;;;7.48;100.00;101988.47;2077970;28;20211;-65
2024/02/28 00:35:02;;;;;;;15.63;8.03;;;;;;;7.57;100.00;102005.53;2077626;28;20212;-65
2024/02/28 00:36:03;;;;;;;15.37;7.10;;;;;;;7.41;100.00;101980.16;2077842;28;20181;-65
2024/02/28 00:37:04;;;;;;;14.57;6.90;;;;;;;7.59;100.00;102007.91;2080793;28;20187;-65
2024/02/28 00:38:04;;;;;;;12.13;6.77;;;;;;;7.59;100.00;102003.19;2077906;28;20231;-65
2024/02/28 00:39:05;;;;;;;13.10;7.67;;;;;;;7.59;100.00;102010.69;2078408;28;20684;-65
2024/02/28 00:40:07;;;;;;;14.07;6.97;;;;;;;7.61;100.00;102011.88;2078446;28;20231;-65
2024/02/28 00:41:08;;;;;;;9.80;6.27;;;;;;;7.54;100.00;101997.22;2078244;28;20647;-65
2024/02/28 00:42:08;;;;;;;12.13;7.23;;;;;;;7.61;100.00;102014.66;2077939;28;20443;-65
2024/02/28 00:43:09;;;;;;;17.57;7.30;;;;;;;7.61;100.00;102011.88;2080708;28;20187;-65
2024/02/28 00:44:10;;;;;;;11.57;6.67;;;;;;;7.60;100.00;102012.25;2078335;28;20203;-65
2024/02/28 00:45:10;;;;;;;12.63;7.43;;;;;;;7.62;100.00;102012.66;2077702;28;20244;-65
2024/02/28 00:46:12;;;;;;;13.07;7.60;;;;;;;7.60;100.00;102010.31;2077061;28;20196;-65
2024/02/28 00:47:12;;;;;;;11.60;6.43;;;;;;;7.62;100.00;102007.13;2077779;28;20201;-65
2024/02/28 00:48:13;;;;;;;18.20;8.67;;;;;;;7.62;100.00;102016.22;2077477;28;20434;-65
2024/02/28 00:49:14;;;;;;;10.97;7.37;;;;;;;7.52;100.00;101996.78;2080367;28;20188;-65
2024/02/28 00:50:14;;;;;;;16.73;7.87;;;;;;;6.69;100.00;101865.94;2078131;28;20524;-65
2024/02/28 00:51:15;;;;;;;12.80;7.10;;;;;;;7.65;100.00;102011.91;2077316;28;20193;-65
2024/02/28 00:52:15;;;;;;;10.30;6.30;;;;;;;7.65;100.00;102015.47;2077528;28;20290;-66
2024/02/28 00:53:17;;;;;;;11.67;6.80;;;;;;;7.65;100.00;102009.97;2078125;28;20208;-64
2024/02/28 00:54:18;;;;;;;12.33;6.50;;;;;;;7.62;100.00;102010.72;2077671;28;20226;-65
2024/02/28 00:55:18;;;;;;;11.77;6.67;;;;;;;7.59;100.00;102010.69;2080666;28;20431;-65
2024/02/28 00:56:19;;;;;;;11.10;5.30;;;;;;;7.57;100.00;102008.28;2078099;28;20286;-65
2024/02/28 00:57:19;;;;;;;9.00;5.97;;;;;;;7.54;100.00;102005.50;2078472;28;20212;-65
2024/02/28 00:58:20;;;;;;;9.80;5.00;;;;;;;7.50;100.00;102008.22;2077922;28;20209;-65
2024/02/28 00:59:20;;;;;;;8.90;5.77;;;;;;;7.48;100.00;102001.50;2078228;28;20205;-65
2024/02/28 01:00:21;;;;;;;9.13;5.37;;;;;;;7.47;100.00;101999.88;2077072;28;20566;-65
2024/02/28 01:01:22;;;;;;;8.70;5.47;;;;;;;7.49;100.00;102000.31;2080377;28;20663;-65
2024/02/28 01:02:23;;;;;;;8.83;5.60;;;;;;;7.47;100.00;101997.13;2077376;28;20199;-65
2024/02/28 01:03:23;;;;;;;10.23;5.73;;;;;;;7.44;100.00;102004.19;2077827;28;21018;-65
2024/02/28 01:04:24;;;;;;;8.50;5.57;;;;;;;7.42;100.00;102005.75;2077517;28;20192;-65
2024/02/28 01:05:24;;;;;;;10.90;6.23;;;;;;;7.40;100.00;102003.38;2077425;28;20702;-64
2024/02/28 01:06:25;;;;;;;11.30;6.70;;;;;;;7.38;100.00;101996.66;2076912;28;20196;-65
2024/02/28 01:07:25;;;;;;;9.57;6.07;;;;;;;6.69;100.00;101898.19;2080473;28;20196;-65
2024/02/28 01:08:26;;;;;;;10.60;6.07;;;;;;;7.33;100.00;101997.78;2077647;28;20288;-65
2024/02/28 01:09:26;;;;;;;8.57;5.33;;;;;;;7.36;100.00;102002.56;2077805;28;20196;-65
2024/02/28 01:10:27;;;;;;;8.30;5.53;;;;;;;7.39;100.00;101995.47;2077809;28;20636;-64
2024/02/28 01:11:27;;;;;;;13.07;6.23;;;;;;;7.32;100.00;101989.88;2078251;28;20737;-65
2024/02/28 01:12:28;;;;;;;13.00;6.57;;;;;;;7.43;100.00;102008.13;2077939;28;20282;-65
2024/02/28 01:13:28;;;;;;;12.63;6.40;;;;;;;7.45;100.00;102003.06;2080394;28;20254;-65
2024/02/28 01:14:29;;;;;;;9.77;5.53;;;;;;;7.31;100.00;101997.38;2076070;28;20283;-65
2024/02/28 01:15:30;;;;;;;11.20;6.70;;;;;;;7.47;100.00;102000.69;2077958;28;20203;-65
2024/02/28 01:16:30;;;;;;;11.30;6.40;;;;;;;6.51;100.00;101853.13;2077701;28;20201;-64
2024/02/28 01:17:31;;;;;;;11.37;6.30;;;;;;;7.51;100.00;102011.75;2077240;28;20194;-65
2024/02/28 01:18:32;;;;;;;13.67;7.40;;;;;;;7.37;100.00;101989.53;2077341;28;20242;-65
2024/02/28 01:19:32;;;;;;;11.03;7.30;;;;;;;6.56;100.00;101853.56;2080525;28;20197;-65
2024/02/28 01:20:33;;;;;;;11.53;7.07;;;;;;;7.42;100.00;101992.75;2078148;28;20661;-65
2024/02/28 01:21:33;;;;;;;17.00;6.37;;;;;;;7.50;100.00;102005.47;2076869;28;20621;-65
2024/02/28 01:22:35;;;;;;;10.07;6.40;;;;;;;7.48;100.00;101999.53;2077681;28;20190;-65
2024/02/28 01:23:35;;;;;;;10.67;6.37;;;;;;;7.47;100.00;102010.94;2077122;28;20204;-65
2024/02/28 01:24:36;;;;;;;11.03;6.80;;;;;;;7.44;100.00;102015.22;2077785;28;20445;-65
2024/02/28 01:25:37;;;;;;;11.20;6.20;;;;;;;7.08;100.00;101960.84;2080111;28;20244;-65
2024/02/28 01:26:38;;;;;;;7.90;5.33;;;;;;;7.39;100.00;102015.56;2077978;28;20457;-65
2024/02/28 01:27:38;;;;;;;10.63;6.33;;;;;;;7.14;100.00;102013.72;2078278;28;20197;-65
2024/02/28 01:28:39;;;;;;;10.13;6.40;;;;;;;7.30;100.00;102014.28;2077632;28;20193;-65
2024/02/28 01:29:40;;;;;;;12.27;7.50;;;;;;;7.27;100.00;102015.03;2077994;28;20182;-65
2024/02/28 01:30:40;;;;;;;9.10;5.97;;;;;;;6.82;100.00;101952.66;2077493;28;20451;-65
2024/02/28 01:31:40;;;;;;;11.60;5.97;;;;;;;7.23;100.00;102019.72;2080070;28;20666;-65
2024/02/28 01:32:41;;;;;;;12.67;6.87;;;;;;;7.21;100.00;102014.59;2077838;28;20199;-65
2024/02/28 01:33:41;;;;;;;12.50;7.27;;;;;;;7.19;100.00;102022.44;2077786;28;20633;-65
2024/02/28 01:34:42;;;;;;;11.30;5.83;;;;;;;7.08;100.00;102001.44;2077046;28;20649;-65
2024/02/28 01:35:42;;;;;;;9.73;6.00;;;;;;;7.16;100.00;102017.69;2077722;28;20195;-65
2024/02/28 01:36:43;;;;;;;9.20;5.60;;;;;;;7.15;100.00;102018.84;2077777;28;20210;-65
2024/02/28 01:37:43;;;;;;;10.23;6.20;;;;;;;7.16;100.00;102017.69;2080041;28;20237;-65
2024/02/28 01:38:44;;;;;;;11.37;6.77;;;;;;;7.15;100.00;102018.84;2076796;28;20204;-65
2024/02/28 01:39:44;;;;;;;11.77;6.27;;;;;;;7.17;100.00;102015.72;2077812;28;20703;-65
2024/02/28 01:40:46;;;;;;;12.37;7.03;;;;;;;7.16;100.00;102023.19;2077675;28;20565;-65
2024/02/28 01:41:54;;;;;;;11.63;7.30;;;;;;;7.18;100.00;102034.63;2077526;28;20178;-65
2024/02/28 01:42:54;;;;;;;11.48;6.45;;;;;;;7.14;100.00;102025.53;2076703;28;21527;-65
2024/02/28 01:43:55;;;;;;;12.57;6.07;;;;;;;7.22;100.00;102034.69;2079908;28;20205;-65
2024/02/28 01:44:55;;;;;;;8.97;5.17;;;;;;;7.23;100.00;102033.50;2077716;28;20254;-65
2024/02/28 01:45:57;;;;;;;9.10;5.50;;;;;;;7.21;100.00;102033.88;2076929;28;20271;-65
2024/02/28 01:46:58;;;;;;;8.77;5.03;;;;;;;7.21;100.00;102033.09;2084969;28;20728;-65
2024/02/28 01:47:59;;;;;;;8.30;4.90;;;;;;;7.21;100.00;102036.66;2084223;28;21072;-65
2024/02/28 01:48:59;;;;;;;9.85;6.07;;;;;;;7.23;100.00;102036.28;2084976;28;20204;-65
2024/02/28 01:50:00;;;;;;;8.50;5.07;;;;;;;7.23;100.00;102031.53;2087739;28;20334;-65
2024/02/28 01:51:01;;;;;;;8.80;4.90;;;;;;;7.25;100.00;102031.16;2077923;28;20201;-65
2024/02/28 01:52:03;;;;;;;9.20;5.50;;;;;;;7.24;100.00;102035.91;2077069;28;20662;-65
2024/02/28 01:53:07;;;;;;;7.18;4.28;;;;;;;7.22;100.00;102026.41;2076467;28;20307;-65
2024/02/28 01:54:08;;;;;;;8.07;4.22;;;;;;;6.18;100.00;101870.41;2077028;28;20702;-66
2024/02/28 01:55:09;;;;;;;13.68;5.68;;;;;;;7.23;100.00;102028.78;2077445;28;20185;-65
2024/02/28 01:56:11;;;;;;;8.70;4.63;;;;;;;7.21;100.00;102019.28;2077707;28;20191;-64
2024/02/28 01:57:12;;;;;;;8.38;5.10;;;;;;;7.26;100.00;102028.03;2079481;28;20249;-65
2024/02/28 01:58:12;;;;;;;9.43;6.05;;;;;;;7.22;100.00;102026.41;2077630;28;20185;-65
2024/02/28 01:59:13;;;;;;;9.30;5.10;;;;;;;7.28;100.00;102031.19;2076792;28;20205;-65
2024/02/28 02:00:16;;;;;;;8.53;5.23;;;;;;;7.21;100.00;102024.81;2076728;28;20208;-65
2024/02/28 02:01:17;;;;;;;9.50;4.97;;;;;;;7.22;100.00;102021.69;2076407;28;20612;-65
2024/02/28 02:02:18;;;;;;;11.03;5.57;;;;;;;7.21;100.00;102017.34;2077368;28;20237;-66
2024/02/28 02:03:18;;;;;;;14.20;4.90;;;;;;;7.24;100.00;102032.34;2080353;28;20180;-65
2024/02/28 02:04:19;;;;;;;6.70;4.90;;;;;;;7.17;100.00;102013.75;2075954;28;20704;-65
2024/02/28 02:05:20;;;;;;;14.57;5.60;;;;;;;7.30;100.00;102028.06;2076706;28;20251;-65
2024/02/28 02:06:22;;;;;;;11.20;5.45;;;;;;;7.30;100.00;102031.63;2077739;28;20255;-65
2024/02/28 02:07:22;;;;;;;14.07;5.43;;;;;;;7.32;100.00;102031.25;2077666;28;20215;-64
2024/02/28 02:08:23;;;;;;;10.37;5.43;;;;;;;7.33;100.00;102033.63;2076989;28;20674;-65
2024/02/28 02:09:25;;;;;;;12.27;5.20;;;;;;;7.34;100.00;102042.72;2080005;28;20441;-65
2024/02/28 02:10:26;;;;;;;11.57;5.18;;;;;;;6.64;100.00;101928.81;2077019;28;20672;-65
2024/02/28 02:11:27;;;;;;;10.20;5.07;;;;;;;7.35;100.00;102036.00;2077787;28;20675;-64
2024/02/28 02:12:28;;;;;;;13.90;5.07;;;;;;;7.39;100.00;102032.13;2077533;28;20479;-65
2024/02/28 02:13:28;;;;;;;7.33;4.50;;;;;;;7.41;100.00;102040.03;2077021;28;20212;-65
2024/02/28 02:14:29;;;;;;;7.83;4.50;;;;;;;7.40;100.00;102038.44;2077125;28;20209;-65
2024/02/28 02:15:31;;;;;;;8.27;4.87;;;;;;;7.43;100.00;102034.94;2080114;28;20682;-65
2024/02/28 02:16:31;;;;;;;8.38;5.05;;;;;;;7.43;100.00;102034.94;2076625;28;20271;-64
2024/02/28 02:17:32;;;;;;;9.20;5.10;;;;;;;7.42;100.00;102025.06;2077380;28;20668;-65
2024/02/28 02:18:32;;;;;;;7.67;4.87;;;;;;;7.42;100.00;102036.88;2077366;28;20661;-65
2024/02/28 02:19:33;;;;;;;8.00;4.43;;;;;;;7.43;100.00;102041.22;2077470;28;20202;-65
2024/02/28 02:20:39;;;;;;;6.90;4.37;;;;;;;7.45;100.00;102038.09;2076886;28;20195;-65
2024/02/28 02:22:03;;;;;;;7.47;4.82;;;;;;;7.45;100.00;102032.59;2077819;28;20677;-65
2024/02/28 02:23:03;;;;;;;11.63;5.97;;;;;;;7.41;100.00;102021.53;2076992;28;20333;-65
2024/02/28 02:24:04;;;;;;;11.20;5.57;;;;;;;6.82;100.00;101944.41;2079171;28;20189;-65
2024/02/28 02:25:05;;;;;;;8.53;4.67;;;;;;;7.10;100.00;101999.06;2078780;28;20217;-65
2024/02/28 02:26:06;;;;;;;9.97;4.80;;;;;;;7.39;100.00;102031.34;2077436;28;20722;-65
2024/02/28 02:27:06;;;;;;;9.53;5.03;;;;;;;7.38;100.00;102029.75;2076882;28;20960;-65
2024/02/28 02:28:07;;;;;;;7.47;4.53;;;;;;;7.39;100.00;102034.09;2077035;28;20596;-65
2024/02/28 02:29:09;;;;;;;13.43;5.23;;;;;;;7.40;100.00;102033.72;2077415;28;20186;-65
2024/02/28 02:30:10;;;;;;;10.52;5.93;;;;;;;7.40;100.00;102030.16;2078967;28;20484;-65
2024/02/28 02:31:11;;;;;;;12.20;5.75;;;;;;;7.40;100.00;102049.47;2078466;28;20201;-65
2024/02/28 02:32:12;;;;;;;14.00;5.53;;;;;;;7.40;100.00;102035.69;2076225;28;20197;-65
2024/02/28 02:33:12;;;;;;;15.37;6.00;;;;;;;7.40;100.00;102030.16;2077225;28;20664;-65
2024/02/28 02:34:13;;;;;;;9.93;5.10;;;;;;;7.30;100.00;102011.53;2077010;28;20201;-65
2024/02/28 02:35:13;;;;;;;10.73;6.47;;;;;;;6.94;100.00;101955.19;2077663;28;20732;-65
2024/02/28 02:36:14;;;;;;;16.70;5.80;;;;;;;7.42;100.00;102036.09;2078822;28;20663;-65
2024/02/28 02:37:15;;;;;;;15.83;5.30;;;;;;;7.42;100.00;102034.13;2078062;28;20184;-65
2024/02/28 02:38:15;;;;;;;21.63;6.37;;;;;;;7.44;100.00;102037.28;2077430;28;20191;-65
2024/02/28 02:39:16;;;;;;;8.57;5.13;;;;;;;7.44;100.00;102042.81;2077016;28;20250;-65
2024/02/28 02:40:16;;;;;;;12.93;5.33;;;;;;;7.42;100.00;102033.31;2075704;28;20235;-65
2024/02/28 02:41:18;;;;;;;9.60;5.40;;;;;;;7.39;100.00;102037.63;2077003;28;20183;-65
2024/02/28 02:42:18;;;;;;;13.63;6.60;;;;;;;7.36;100.00;102035.66;2078835;28;20213;-65
2024/02/28 02:43:19;;;;;;;11.80;5.50;;;;;;;7.30;100.00;102028.06;2078978;28;20185;-65
2024/02/28 02:44:19;;;;;;;11.83;6.90;;;;;;;7.33;100.00;102039.13;2076753;28;20197;-65
2024/02/28 02:45:20;;;;;;;11.40;5.87;;;;;;;7.33;100.00;102030.09;2077956;28;20213;-65
2024/02/28 02:46:21;;;;;;;12.17;6.27;;;;;;;7.32;100.00;102037.56;2076012;28;20315;-65
2024/02/28 02:47:21;;;;;;;8.67;5.70;;;;;;;7.21;100.00;102013.78;2077736;28;20189;-65
2024/02/28 02:48:22;;;;;;;8.80;5.40;;;;;;;7.29;100.00;102043.81;2079594;28;20181;-65
2024/02/28 02:49:22;;;;;;;9.90;5.83;;;;;;;7.15;100.00;102018.84;2076932;28;20250;-65
2024/02/28 02:50:23;;;;;;;9.50;5.47;;;;;;;7.19;100.00;102032.66;2077220;28;20188;-65
2024/02/28 02:51:24;;;;;;;10.53;5.67;;;;;;;7.11;100.00;102019.97;2077337;28;20189;-65
2024/02/28 02:52:24;;;;;;;11.50;5.90;;;;;;;6.52;100.00;101924.34;2077003;28;20219;-65
2024/02/28 02:53:25;;;;;;;9.57;5.63;;;;;;;7.25;100.00;102034.72;2076966;28;20187;-65
2024/02/28 02:54:25;;;;;;;10.50;6.10;;;;;;;6.75;100.00;101955.34;2079410;28;20267;-65
2024/02/28 02:55:26;;;;;;;9.80;5.10;;;;;;;7.29;100.00;102045.78;2084771;28;20191;-65
2024/02/28 02:56:26;;;;;;;8.43;5.67;;;;;;;6.53;100.00;101908.63;2083370;28;20193;-65
2024/02/28 02:57:27;;;;;;;10.13;5.30;;;;;;;7.33;100.00;102043.88;2077471;28;20280;-65
2024/02/28 02:58:27;;;;;;;10.87;5.53;;;;;;;6.45;100.00;101898.66;2077228;28;20199;-65
2024/02/28 02:59:28;;;;;;;10.93;5.63;;;;;;;7.37;100.00;102044.69;2076720;28;20182;-65
2024/02/28 03:00:29;;;;;;;15.50;5.23;;;;;;;7.39;100.00;102043.16;2079509;28;20183;-65
2024/02/28 03:01:29;;;;;;;12.90;6.30;;;;;;;7.43;100.00;102038.47;2076966;28;20273;-65
2024/02/28 03:02:31;;;;;;;9.50;5.60;;;;;;;7.46;100.00;102042.44;2077221;28;20199;-65
2024/02/28 03:03:31;;;;;;;10.50;5.68;;;;;;;7.43;100.00;102038.47;2077030;28;20192;-65
2024/02/28 03:04:31;;;;;;;11.87;5.93;;;;;;;7.44;100.00;102047.56;2076585;28;20203;-65
2024/02/28 03:05:32;;;;;;;10.70;5.57;;;;;;;7.41;100.00;102034.50;2077181;28;20202;-65
2024/02/28 03:06:32;;;;;;;9.87;5.03;;;;;;;6.94;100.00;101966.22;2079737;28;20186;-65
2024/02/28 03:07:33;;;;;;;9.13;5.77;;;;;;;7.36;100.00;102043.09;2077252;28;20193;-65
2024/02/28 03:08:34;;;;;;;9.70;5.47;;;;;;;7.31;100.00;102043.44;2077949;28;20224;-64
2024/02/28 03:09:34;;;;;;;10.13;5.70;;;;;;;7.28;100.00;102045.00;2078959;28;20192;-64
2024/02/28 03:10:34;;;;;;;12.90;5.87;;;;;;;6.50;100.00;101940.44;2078776;28;20245;-65
2024/02/28 03:11:35;;;;;;;10.97;6.57;;;;;;;7.23;100.00;102048.06;2078990;28;20210;-65
2024/02/28 03:12:36;;;;;;;9.80;6.33;;;;;;;6.87;100.00;101999.19;2081365;28;20217;-65
2024/02/28 03:13:37;;;;;;;9.83;6.10;;;;;;;6.67;100.00;101975.69;2078156;28;20275;-65
2024/02/28 03:14:37;;;;;;;9.13;6.10;;;;;;;6.94;100.00;102020.53;2078769;28;20702;-65
2024/02/28 03:15:38;;;;;;;10.10;5.50;;;;;;;7.07;100.00;102080.56;2082262;28;20198;-65
2024/02/28 03:16:42;;;;;;;12.43;6.60;;;;;;;7.06;100.00;102050.59;2078305;28;20182;-65
2024/02/28 03:17:43;;;;;;;10.70;6.35;;;;;;;6.87;100.00;102032.25;2078826;28;20272;-65
2024/02/28 03:18:43;;;;;;;10.83;5.93;;;;;;;7.04;100.00;102044.69;2081314;28;20182;-65
2024/02/28 03:19:44;;;;;;;9.60;5.43;;;;;;;7.01;100.00;102050.94;2078575;28;20636;-65
2024/02/28 03:20:44;;;;;;;10.13;5.70;;;;;;;6.95;100.00;102055.19;2078778;28;20270;-65
2024/02/28 03:21:45;;;;;;;14.73;6.90;;;;;;;6.35;100.00;101960.69;2078546;28;20189;-65
2024/02/28 03:22:45;;;;;;;9.73;5.93;;;;;;;6.90;100.00;102045.31;2078832;28;20205;-65
2024/02/28 03:23:46;;;;;;;12.60;5.17;;;;;;;6.88;100.00;102053.13;2078294;28;20191;-65
2024/02/28 03:24:46;;;;;;;12.43;6.47;;;;;;;6.86;100.00;102047.22;2081034;28;20637;-65
2024/02/28 03:25:47;;;;;;;14.83;6.47;;;;;;;6.85;100.00;102051.13;2078921;28;20678;-65
2024/02/28 03:26:47;;;;;;;12.83;6.77;;;;;;;6.85;100.00;102062.16;2078498;28;20199;-65
2024/02/28 03:27:48;;;;;;;15.80;7.60;;;;;;;6.85;100.00;102053.88;2078787;28;20197;-65
2024/02/28 03:28:48;;;;;;;12.97;6.73;;;;;;;6.67;100.00;102028.03;2085645;28;20271;-65
2024/02/28 03:29:49;;;;;;;10.87;5.60;;;;;;;6.82;100.00;102065.63;2086474;28;20758;-65
2024/02/28 03:30:49;;;;;;;16.83;7.07;;;;;;;6.82;100.00;102067.63;2081233;28;20640;-64
2024/02/28 03:31:50;;;;;;;12.47;6.40;;;;;;;6.81;100.00;102066.81;2078255;28;20193;-65
2024/02/28 03:32:50;;;;;;;14.20;7.47;;;;;;;6.81;100.00;102066.03;2079069;28;20220;-65
2024/02/28 03:33:51;;;;;;;14.00;6.30;;;;;;;6.82;100.00;102064.88;2078419;28;20196;-64
2024/02/28 03:34:51;;;;;;;14.40;6.93;;;;;;;6.82;100.00;102070.38;2078743;28;20189;-65
2024/02/28 03:35:52;;;;;;;11.97;6.80;;;;;;;6.84;100.00;102066.09;2078625;28;20264;-64
2024/02/28 03:36:52;;;;;;;12.07;6.23;;;;;;;6.54;100.00;102014.84;2081150;28;20182;-65
2024/02/28 03:37:53;;;;;;;12.60;6.00;;;;;;;6.85;100.00;102064.91;2078144;28;20614;-65
2024/02/28 03:38:54;;;;;;;18.97;6.50;;;;;;;6.79;100.00;102054.56;2077072;28;20188;-65
2024/02/28 03:39:54;;;;;;;14.17;6.80;;;;;;;6.88;100.00;102066.91;2078671;28;20700;-64
2024/02/28 03:40:56;;;;;;;14.40;6.82;;;;;;;6.89;100.00;102075.97;2078248;28;20209;-65
2024/02/28 03:41:56;;;;;;;12.73;6.10;;;;;;;6.89;100.00;102068.50;2078388;28;20732;-65
2024/02/28 03:42:59;;;;;;;11.67;5.97;;;;;;;6.90;100.00;102067.34;2081199;28;20197;-65
2024/02/28 03:43:59;;;;;;;12.80;6.35;;;;;;;6.92;100.00;102064.22;2078044;28;20625;-65
2024/02/28 03:45:00;;;;;;;13.10;6.60;;;;;;;6.89;100.00;102059.44;2078763;28;21222;-64
2024/02/28 03:46:00;;;;;;;11.63;5.53;;;;;;;6.92;100.00;102058.72;2078290;28;20621;-65
2024/02/28 03:47:01;;;;;;;13.23;5.63;;;;;;;6.90;100.00;102064.59;2078630;28;20585;-65
2024/02/28 03:48:01;;;;;;;10.10;6.03;;;;;;;6.93;100.00;102060.28;2078861;28;20265;-65
2024/02/28 03:49:02;;;;;;;8.83;5.23;;;;;;;6.95;100.00;102061.50;2081201;28;20617;-65
2024/02/28 03:50:03;;;;;;;10.77;5.10;;;;;;;6.98;100.00;102065.47;2078393;28;20623;-65
2024/02/28 03:51:04;;;;;;;10.13;5.78;;;;;;;6.99;100.00;102065.13;2078187;28;20186;-65
2024/02/28 03:52:06;;;;;;;9.67;5.30;;;;;;;6.99;100.00;102070.63;2086047;28;20202;-65
2024/02/28 03:53:06;;;;;;;14.57;6.30;;;;;;;6.99;100.00;102065.13;2085655;28;20185;-66
2024/02/28 03:54:07;;;;;;;15.40;6.77;;;;;;;6.12;100.00;101928.88;2077927;28;20698;-64
2024/02/28 03:55:08;;;;;;;18.63;6.80;;;;;;;6.96;100.00;102065.03;2080214;28;20284;-65
2024/02/28 03:56:09;;;;;;;9.30;5.80;;;;;;;6.98;100.00;102069.00;2078706;28;20199;-65
2024/02/28 03:57:09;;;;;;;32.97;6.40;;;;;;;7.00;100.00;102074.97;2078529;28;20259;-65
2024/02/28 03:58:10;;;;;;;18.47;6.27;;;;;;;7.04;100.00;102075.00;2078187;28;20206;-65
2024/02/28 03:59:11;;;;;;;12.63;5.75;;;;;;;7.05;100.00;102071.09;2078206;28;20186;-65
2024/02/28 04:00:12;;;;;;;22.80;6.83;;;;;;;5.75;100.00;101868.16;2078546;28;20197;-65
2024/02/28 04:01:13;;;;;;;15.68;5.43;;;;;;;7.04;100.00;102083.28;2080502;28;20641;-65
2024/02/28 04:02:13;;;;;;;13.17;5.47;;;;;;;5.92;100.00;101900.69;2078598;28;20189;-66
2024/02/28 04:03:14;;;;;;;10.93;5.47;;;;;;;7.03;100.00;102076.19;2078426;28;20276;-65
2024/02/28 04:04:15;;;;;;;11.33;5.67;;;;;;;7.02;100.00;102078.13;2078152;28;20562;-65
2024/02/28 04:05:17;;;;;;;8.40;5.20;;;;;;;7.01;100.00;102081.25;2077254;28;20269;-64
2024/02/28 04:06:17;;;;;;;11.45;6.20;;;;;;;5.90;100.00;101907.72;2077955;28;20553;-65
2024/02/28 04:07:18;;;;;;;21.00;7.93;;;;;;;6.35;100.00;101979.97;2080283;28;20339;-65
2024/02/28 04:08:18;;;;;;;10.33;5.30;;;;;;;7.01;100.00;102073.00;2078090;28;20255;-65
2024/02/28 04:09:20;;;;;;;15.47;6.70;;;;;;;6.14;100.00;101952.13;2078560;28;20200;-65
2024/02/28 04:10:21;;;;;;;10.38;5.55;;;;;;;6.93;100.00;102083.13;2078268;28;20202;-65
2024/02/28 04:11:21;;;;;;;9.33;5.40;;;;;;;6.51;100.00;102023.88;2078761;28;20184;-65
2024/02/28 04:12:22;;;;;;;9.37;5.63;;;;;;;6.88;100.00;102079.91;2078243;28;20207;-64
2024/02/28 04:13:22;;;;;;;9.90;5.17;;;;;;;6.80;100.00;102076.25;2080768;28;20193;-65
2024/02/28 04:14:23;;;;;;;11.27;6.37;;;;;;;6.82;100.00;102081.41;2078228;28;20193;-65
2024/02/28 04:15:25;;;;;;;14.13;6.73;;;;;;;6.40;100.00;102015.44;2078466;28;20192;-65
2024/02/28 04:16:26;;;;;;;10.73;5.30;;;;;;;6.81;100.00;102082.56;2078013;28;20208;-65
2024/02/28 04:17:26;;;;;;;13.97;5.67;;;;;;;6.73;100.00;102076.16;2077957;28;20193;-65
2024/02/28 04:18:27;;;;;;;19.50;6.03;;;;;;;6.42;100.00;102028.84;2078430;28;20239;-65
2024/02/28 04:19:27;;;;;;;12.30;5.53;;;;;;;6.78;100.00;102078.59;2080833;28;20200;-65
2024/02/28 04:20:28;;;;;;;11.83;5.87;;;;;;;6.19;100.00;101989.53;2078212;28;20281;-65
2024/02/28 04:22:47;;;;;;;8.13;5.10;;;;;;;5.68;100.00;101909.31;2078260;28;20195;-65
2024/02/28 04:23:48;;;;;;;8.53;4.97;;;;;;;6.28;100.00;101995.59;2078227;28;20220;-65
2024/02/28 04:24:48;;;;;;;9.67;5.30;;;;;;;6.78;100.00;102081.34;2078127;28;20209;-65
2024/02/28 04:25:49;;;;;;;14.03;5.30;;;;;;;6.78;100.00;102081.34;2078284;28;20227;-65
2024/02/28 04:26:53;;;;;;;16.00;5.87;;;;;;;6.82;100.00;102086.91;2080791;28;20199;-65
2024/02/28 04:27:53;;;;;;;8.73;4.57;;;;;;;6.82;100.00;102084.94;2077573;28;20193;-65
2024/02/28 04:28:54;;;;;;;10.30;5.17;;;;;;;6.84;100.00;102076.31;2077859;28;20205;-64
2024/02/28 04:29:54;;;;;;;8.60;4.87;;;;;;;6.86;100.00;102085.78;2077864;28;20217;-65
2024/02/28 04:30:55;;;;;;;14.50;6.83;;;;;;;6.86;100.00;102080.28;2077228;28;20204;-65
2024/02/28 04:31:56;;;;;;;9.82;5.20;;;;;;;6.84;100.00;102073.53;2078402;28;20665;-65
2024/02/28 04:32:57;;;;;;;11.40;5.13;;;;;;;6.91;100.00;102090.16;2080606;28;20193;-65
2024/02/28 04:33:57;;;;;;;9.50;5.27;;;;;;;6.10;100.00;101959.53;2077509;28;20209;-65
2024/02/28 04:34:58;;;;;;;13.37;5.83;;;;;;;6.15;100.00;101977.69;2078022;28;20235;-65
2024/02/28 04:35:58;;;;;;;11.27;5.70;;;;;;;6.87;100.00;102070.06;2077983;28;20288;-65
2024/02/28 04:36:59;;;;;;;8.73;5.33;;;;;;;6.94;100.00;102087.50;2078090;28;20216;-65
2024/02/28 04:38:00;;;;;;;10.53;5.77;;;;;;;6.95;100.00;102074.47;2077699;28;20234;-65
2024/02/28 04:39:01;;;;;;;11.93;6.10;;;;;;;6.97;100.00;102086.72;2080697;28;20280;-65
2024/02/28 04:40:02;;;;;;;9.53;4.73;;;;;;;6.93;100.00;102079.59;2078328;28;20196;-65
2024/02/28 04:41:03;;;;;;;9.40;5.32;;;;;;;7.01;100.00;102089.53;2078078;28;20196;-65
2024/02/28 04:42:03;;;;;;;9.60;5.73;;;;;;;7.03;100.00;102090.75;2077315;28;20191;-65